sensor_id;sensor_type;location;lat;lon;timestamp;P1;durP1;ratioP1;P2;durP2;ratioP2
58874;SDS011;44652;49.040;12.126;2023-06-22T05:10:27;4.30;;;2.92;;
58874;SDS011;44652;49.040;12.126;2023-06-22T05:12:54;2.97;;;2.22;;
58874;SDS011;44652;49.040;12.126;2023-06-22T05:15:21;4.80;;;2.78;;
58874;SDS011;44652;49.040;12.126;2023-06-22T05:17:53;5.68;;;3.53;;
58874;SDS011;44652;49.040;12.126;2023-06-22T05:20:20;3.20;;;2.22;;
58874;SDS011;44652;49.040;12.126;2023-06-22T05:22:48;3.47;;;2.40;;
58874;SDS011;44652;49.040;12.126;2023-06-22T05:25:15;4.60;;;2.90;;
58874;SDS011;44652;49.040;12.126;2023-06-22T05:27:42;4.63;;;3.28;;
58874;SDS011;44652;49.040;12.126;2023-06-22T05:30:10;5.47;;;3.10;;
58874;SDS011;44652;49.040;12.126;2023-06-22T05:32:38;6.47;;;3.33;;
58874;SDS011;44652;49.040;12.126;2023-06-22T05:35:04;4.65;;;2.55;;
58874;SDS011;44652;49.040;12.126;2023-06-22T05:37:31;4.45;;;3.08;;
58874;SDS011;44652;49.040;12.126;2023-06-22T05:39:58;5.03;;;3.10;;
58874;SDS011;44652;49.040;12.126;2023-06-22T05:42:25;4.90;;;2.78;;
58874;SDS011;44652;49.040;12.126;2023-06-22T05:44:52;7.45;;;2.75;;
58874;SDS011;44652;49.040;12.126;2023-06-22T05:47:19;8.38;;;2.78;;
58874;SDS011;44652;49.040;12.126;2023-06-22T05:49:46;4.60;;;2.67;;
58874;SDS011;44652;49.040;12.126;2023-06-22T05:52:13;3.55;;;2.13;;
58874;SDS011;44652;49.040;12.126;2023-06-22T05:54:40;3.20;;;1.98;;
58874;SDS011;44652;49.040;12.126;2023-06-22T05:57:08;2.85;;;2.08;;
58874;SDS011;44652;49.040;12.126;2023-06-22T05:59:34;3.75;;;1.88;;
58874;SDS011;44652;49.040;12.126;2023-06-22T06:02:01;3.80;;;2.05;;
58874;SDS011;44652;49.040;12.126;2023-06-22T06:04:28;2.95;;;1.83;;
58874;SDS011;44652;49.040;12.126;2023-06-22T06:06:54;3.47;;;2.30;;
58874;SDS011;44652;49.040;12.126;2023-06-22T06:09:21;6.47;;;3.28;;
58874;SDS011;44652;49.040;12.126;2023-06-22T06:11:48;3.22;;;2.28;;
58874;SDS011;44652;49.040;12.126;2023-06-22T06:14:14;4.68;;;2.42;;
58874;SDS011;44652;49.040;12.126;2023-06-22T06:16:43;4.30;;;2.33;;
58874;SDS011;44652;49.040;12.126;2023-06-22T06:19:10;4.28;;;2.95;;
58874;SDS011;44652;49.040;12.126;2023-06-22T06:21:36;3.03;;;2.30;;
58874;SDS011;44652;49.040;12.126;2023-06-22T06:24:03;3.67;;;2.45;;
58874;SDS011;44652;49.040;12.126;2023-06-22T06:26:30;2.33;;;1.63;;
58874;SDS011;44652;49.040;12.126;2023-06-22T06:29:00;4.03;;;2.67;;
58874;SDS011;44652;49.040;12.126;2023-06-22T06:31:26;4.30;;;2.70;;
58874;SDS011;44652;49.040;12.126;2023-06-22T17:58:27;10.50;;;4.22;;
58874;SDS011;44652;49.040;12.126;2023-06-22T18:00:54;1.60;;;0.90;;
58874;SDS011;44652;49.040;12.126;2023-06-22T18:03:24;1.52;;;1.10;;
58874;SDS011;44652;49.040;12.126;2023-06-22T18:05:52;4.70;;;1.60;;
58874;SDS011;44652;49.040;12.126;2023-06-22T18:08:25;2.25;;;1.35;;
58874;SDS011;44652;49.040;12.126;2023-06-22T18:10:53;4.60;;;2.22;;
58874;SDS011;44652;49.040;12.126;2023-06-22T18:13:22;2.42;;;1.42;;
58874;SDS011;44652;49.040;12.126;2023-06-22T18:20:44;1.50;;;1.02;;
58874;SDS011;44652;49.040;12.126;2023-06-22T18:23:13;3.33;;;1.00;;
58874;SDS011;44652;49.040;12.126;2023-06-22T18:25:40;4.47;;;2.17;;
58874;SDS011;44652;49.040;12.126;2023-06-22T18:28:11;4.57;;;1.83;;
58874;SDS011;44652;49.040;12.126;2023-06-22T18:30:39;2.08;;;1.40;;
58874;SDS011;44652;49.040;12.126;2023-06-22T18:33:08;2.35;;;1.75;;
58874;SDS011;44652;49.040;12.126;2023-06-22T18:35:36;4.77;;;2.30;;
58874;SDS011;44652;49.040;12.126;2023-06-22T18:38:04;3.70;;;1.40;;
58874;SDS011;44652;49.040;12.126;2023-06-22T18:40:31;3.00;;;1.48;;
58874;SDS011;44652;49.040;12.126;2023-06-22T18:42:58;2.83;;;1.60;;
58874;SDS011;44652;49.040;12.126;2023-06-22T18:45:27;6.13;;;1.75;;
58874;SDS011;44652;49.040;12.126;2023-06-22T18:50:45;6.85;;;1.45;;
58874;SDS011;44652;49.040;12.126;2023-06-22T18:56:13;6.45;;;1.38;;
58874;SDS011;44652;49.040;12.126;2023-06-22T18:58:41;2.95;;;1.65;;
58874;SDS011;44652;49.040;12.126;2023-06-22T19:01:14;2.33;;;1.55;;
58874;SDS011;44652;49.040;12.126;2023-06-22T19:03:50;3.00;;;1.58;;
58874;SDS011;44652;49.040;12.126;2023-06-22T19:09:20;2.08;;;1.27;;
58874;SDS011;44652;49.040;12.126;2023-06-22T19:11:47;2.95;;;1.48;;
58874;SDS011;44652;49.040;12.126;2023-06-22T19:14:21;3.40;;;1.77;;
58874;SDS011;44652;49.040;12.126;2023-06-22T19:16:56;5.80;;;2.07;;
58874;SDS011;44652;49.040;12.126;2023-06-22T19:19:25;3.47;;;1.10;;
58874;SDS011;44652;49.040;12.126;2023-06-22T19:21:58;4.05;;;2.28;;
58874;SDS011;44652;49.040;12.126;2023-06-22T19:24:30;7.43;;;2.22;;
58874;SDS011;44652;49.040;12.126;2023-06-22T19:26:57;4.10;;;1.90;;
58874;SDS011;44652;49.040;12.126;2023-06-22T19:29:25;2.90;;;1.77;;
58874;SDS011;44652;49.040;12.126;2023-06-22T19:31:53;9.35;;;3.15;;
58874;SDS011;44652;49.040;12.126;2023-06-22T19:34:22;6.57;;;1.40;;
58874;SDS011;44652;49.040;12.126;2023-06-22T19:36:49;3.65;;;1.90;;
58874;SDS011;44652;49.040;12.126;2023-06-22T19:39:16;3.17;;;1.75;;
58874;SDS011;44652;49.040;12.126;2023-06-22T19:41:44;3.28;;;1.48;;
58874;SDS011;44652;49.040;12.126;2023-06-22T19:44:12;4.28;;;1.95;;
58874;SDS011;44652;49.040;12.126;2023-06-22T19:46:39;3.60;;;1.48;;
58874;SDS011;44652;49.040;12.126;2023-06-22T19:49:07;2.72;;;1.50;;
58874;SDS011;44652;49.040;12.126;2023-06-22T19:51:35;5.22;;;1.67;;
58874;SDS011;44652;49.040;12.126;2023-06-22T19:54:08;2.85;;;1.85;;
58874;SDS011;44652;49.040;12.126;2023-06-22T19:56:38;1.50;;;0.90;;
58874;SDS011;44652;49.040;12.126;2023-06-22T19:59:14;2.65;;;1.52;;
58874;SDS011;44652;49.040;12.126;2023-06-22T20:01:46;2.08;;;1.30;;
58874;SDS011;44652;49.040;12.126;2023-06-22T20:04:13;4.18;;;1.42;;
58874;SDS011;44652;49.040;12.126;2023-06-22T20:06:40;3.07;;;1.53;;
58874;SDS011;44652;49.040;12.126;2023-06-22T20:09:25;3.45;;;2.03;;
58874;SDS011;44652;49.040;12.126;2023-06-22T20:11:55;2.28;;;1.60;;
58874;SDS011;44652;49.040;12.126;2023-06-22T20:14:23;4.00;;;1.60;;
58874;SDS011;44652;49.040;12.126;2023-06-22T20:16:50;2.00;;;1.45;;
58874;SDS011;44652;49.040;12.126;2023-06-22T20:19:28;3.80;;;1.92;;
58874;SDS011;44652;49.040;12.126;2023-06-22T20:22:07;7.60;;;1.90;;
58874;SDS011;44652;49.040;12.126;2023-06-22T20:24:34;3.75;;;1.85;;
58874;SDS011;44652;49.040;12.126;2023-06-22T20:27:01;4.20;;;1.70;;
58874;SDS011;44652;49.040;12.126;2023-06-22T20:29:30;3.35;;;1.77;;
58874;SDS011;44652;49.040;12.126;2023-06-22T20:34:38;3.33;;;1.55;;
58874;SDS011;44652;49.040;12.126;2023-06-22T20:37:05;3.90;;;2.00;;
58874;SDS011;44652;49.040;12.126;2023-06-22T20:42:03;2.95;;;1.80;;
58874;SDS011;44652;49.040;12.126;2023-06-22T20:44:31;6.82;;;1.58;;
58874;SDS011;44652;49.040;12.126;2023-06-22T20:46:58;3.80;;;1.80;;
58874;SDS011;44652;49.040;12.126;2023-06-22T20:49:25;3.17;;;1.55;;
58874;SDS011;44652;49.040;12.126;2023-06-22T20:51:55;5.35;;;0.98;;
58874;SDS011;44652;49.040;12.126;2023-06-22T20:54:22;1.88;;;0.90;;
58874;SDS011;44652;49.040;12.126;2023-06-22T20:56:49;2.35;;;1.13;;
58874;SDS011;44652;49.040;12.126;2023-06-22T20:59:15;2.38;;;1.20;;
58874;SDS011;44652;49.040;12.126;2023-06-22T21:01:42;0.88;;;0.63;;
58874;SDS011;44652;49.040;12.126;2023-06-22T21:04:13;1.92;;;0.80;;
58874;SDS011;44652;49.040;12.126;2023-06-22T21:06:42;1.65;;;0.75;;
58874;SDS011;44652;49.040;12.126;2023-06-22T21:09:09;4.30;;;1.13;;
58874;SDS011;44652;49.040;12.126;2023-06-22T21:11:51;3.13;;;1.07;;
58874;SDS011;44652;49.040;12.126;2023-06-22T21:14:26;2.28;;;1.10;;
58874;SDS011;44652;49.040;12.126;2023-06-22T21:17:16;2.35;;;0.93;;
58874;SDS011;44652;49.040;12.126;2023-06-22T21:20:32;5.18;;;0.93;;
58874;SDS011;44652;49.040;12.126;2023-06-22T21:23:44;1.70;;;1.05;;
58874;SDS011;44652;49.040;12.126;2023-06-22T21:26:13;2.85;;;1.02;;
58874;SDS011;44652;49.040;12.126;2023-06-22T21:28:40;1.27;;;0.70;;
58874;SDS011;44652;49.040;12.126;2023-06-22T21:31:06;0.75;;;0.52;;
58874;SDS011;44652;49.040;12.126;2023-06-22T21:33:33;1.23;;;0.85;;
58874;SDS011;44652;49.040;12.126;2023-06-22T21:36:00;2.58;;;0.88;;
58874;SDS011;44652;49.040;12.126;2023-06-22T21:38:27;0.65;;;0.45;;
58874;SDS011;44652;49.040;12.126;2023-06-22T21:40:53;1.77;;;1.00;;
58874;SDS011;44652;49.040;12.126;2023-06-22T21:43:20;0.57;;;0.50;;
58874;SDS011;44652;49.040;12.126;2023-06-22T21:45:47;0.60;;;0.50;;
58874;SDS011;44652;49.040;12.126;2023-06-22T21:48:14;2.25;;;0.65;;
58874;SDS011;44652;49.040;12.126;2023-06-22T21:50:41;1.58;;;0.70;;
58874;SDS011;44652;49.040;12.126;2023-06-22T21:53:08;4.00;;;1.25;;
58874;SDS011;44652;49.040;12.126;2023-06-22T21:55:35;1.45;;;0.93;;
58874;SDS011;44652;49.040;12.126;2023-06-22T21:58:02;1.63;;;0.88;;
58874;SDS011;44652;49.040;12.126;2023-06-22T22:00:28;3.17;;;1.45;;
58874;SDS011;44652;49.040;12.126;2023-06-22T22:02:55;1.42;;;0.80;;
58874;SDS011;44652;49.040;12.126;2023-06-22T22:05:22;7.68;;;1.08;;
58874;SDS011;44652;49.040;12.126;2023-06-22T22:07:49;1.20;;;0.63;;
58874;SDS011;44652;49.040;12.126;2023-06-22T22:10:16;2.72;;;1.70;;
58874;SDS011;44652;49.040;12.126;2023-06-22T22:15:11;5.07;;;1.20;;
58874;SDS011;44652;49.040;12.126;2023-06-22T22:17:39;6.05;;;0.73;;
58874;SDS011;44652;49.040;12.126;2023-06-22T22:20:07;3.10;;;1.27;;
58874;SDS011;44652;49.040;12.126;2023-06-22T22:22:35;6.43;;;1.15;;
58874;SDS011;44652;49.040;12.126;2023-06-22T22:25:02;2.40;;;1.13;;
58874;SDS011;44652;49.040;12.126;2023-06-22T22:27:29;2.87;;;0.90;;
58874;SDS011;44652;49.040;12.126;2023-06-22T22:29:58;2.63;;;1.45;;
58874;SDS011;44652;49.040;12.126;2023-06-22T22:32:25;0.95;;;0.68;;
58874;SDS011;44652;49.040;12.126;2023-06-22T22:34:52;1.10;;;1.00;;
58874;SDS011;44652;49.040;12.126;2023-06-22T22:37:18;2.53;;;1.02;;
58874;SDS011;44652;49.040;12.126;2023-06-22T22:39:45;1.27;;;0.82;;
58874;SDS011;44652;49.040;12.126;2023-06-22T22:42:15;2.42;;;1.88;;
58874;SDS011;44652;49.040;12.126;2023-06-22T22:44:42;2.13;;;1.15;;
58874;SDS011;44652;49.040;12.126;2023-06-22T22:47:08;1.15;;;0.73;;
58874;SDS011;44652;49.040;12.126;2023-06-22T22:49:35;1.90;;;1.00;;
58874;SDS011;44652;49.040;12.126;2023-06-22T22:52:02;3.70;;;2.05;;
58874;SDS011;44652;49.040;12.126;2023-06-22T22:54:29;2.75;;;1.20;;
58874;SDS011;44652;49.040;12.126;2023-06-22T22:56:56;2.40;;;1.23;;
58874;SDS011;44652;49.040;12.126;2023-06-22T22:59:23;4.68;;;1.23;;
58874;SDS011;44652;49.040;12.126;2023-06-22T23:01:49;3.13;;;1.10;;
58874;SDS011;44652;49.040;12.126;2023-06-22T23:04:16;11.43;;;0.90;;
58874;SDS011;44652;49.040;12.126;2023-06-22T23:06:44;1.77;;;0.98;;
58874;SDS011;44652;49.040;12.126;2023-06-22T23:09:11;1.33;;;0.90;;
58874;SDS011;44652;49.040;12.126;2023-06-22T23:11:38;0.98;;;0.77;;
58874;SDS011;44652;49.040;12.126;2023-06-22T23:14:05;5.72;;;1.67;;
58874;SDS011;44652;49.040;12.126;2023-06-22T23:16:32;3.40;;;1.33;;
58874;SDS011;44652;49.040;12.126;2023-06-22T23:18:59;1.40;;;0.95;;
58874;SDS011;44652;49.040;12.126;2023-06-22T23:21:26;0.85;;;0.63;;
58874;SDS011;44652;49.040;12.126;2023-06-22T23:23:55;2.85;;;1.15;;
58874;SDS011;44652;49.040;12.126;2023-06-22T23:26:22;4.45;;;0.77;;
58874;SDS011;44652;49.040;12.126;2023-06-22T23:28:49;1.65;;;1.10;;
58874;SDS011;44652;49.040;12.126;2023-06-22T23:31:16;1.77;;;1.30;;
58874;SDS011;44652;49.040;12.126;2023-06-22T23:33:43;2.08;;;1.17;;
58874;SDS011;44652;49.040;12.126;2023-06-22T23:36:09;3.30;;;1.23;;
58874;SDS011;44652;49.040;12.126;2023-06-22T23:38:36;6.10;;;0.85;;
58874;SDS011;44652;49.040;12.126;2023-06-22T23:41:05;1.98;;;1.02;;
58874;SDS011;44652;49.040;12.126;2023-06-22T23:43:34;1.58;;;0.68;;
58874;SDS011;44652;49.040;12.126;2023-06-22T23:46:00;3.42;;;1.45;;
58874;SDS011;44652;49.040;12.126;2023-06-22T23:48:30;4.07;;;1.80;;
58874;SDS011;44652;49.040;12.126;2023-06-22T23:50:57;2.95;;;0.75;;
58874;SDS011;44652;49.040;12.126;2023-06-22T23:53:26;0.98;;;0.85;;
58874;SDS011;44652;49.040;12.126;2023-06-22T23:55:53;2.83;;;1.08;;
58874;SDS011;44652;49.040;12.126;2023-06-22T23:58:23;2.05;;;0.90;;
